sensor_id;sensor_type;location;lat;lon;timestamp;pressure;altitude;pressure_sealevel;temperature
68939;BMP180;59064;45.294;11.816;2023-01-31T00:01:36;101681.80;;;0.90
68939;BMP180;59064;45.294;11.816;2023-01-31T00:04:06;101685.20;;;1.00
68939;BMP180;59064;45.294;11.816;2023-01-31T00:06:40;101689.20;;;1.00
68939;BMP180;59064;45.294;11.816;2023-01-31T00:09:08;101680.60;;;1.00
68939;BMP180;59064;45.294;11.816;2023-01-31T00:11:35;101680.00;;;0.98
68939;BMP180;59064;45.294;11.816;2023-01-31T00:14:05;101680.80;;;1.00
68939;BMP180;59064;45.294;11.816;2023-01-31T00:16:31;101677.00;;;0.90
68939;BMP180;59064;45.294;11.816;2023-01-31T00:18:57;101681.00;;;0.98
68939;BMP180;59064;45.294;11.816;2023-01-31T00:21:27;101684.20;;;1.00
68939;BMP180;59064;45.294;11.816;2023-01-31T00:23:54;101678.80;;;1.00
68939;BMP180;59064;45.294;11.816;2023-01-31T00:26:39;101689.60;;;0.90
68939;BMP180;59064;45.294;11.816;2023-01-31T00:29:05;101691.60;;;0.80
68939;BMP180;59064;45.294;11.816;2023-01-31T00:31:33;101682.00;;;0.80
68939;BMP180;59064;45.294;11.816;2023-01-31T00:33:59;101675.20;;;0.70
68939;BMP180;59064;45.294;11.816;2023-01-31T00:36:31;101678.40;;;0.70
68939;BMP180;59064;45.294;11.816;2023-01-31T00:39:00;101684.00;;;0.60
68939;BMP180;59064;45.294;11.816;2023-01-31T00:41:28;101690.40;;;0.60
68939;BMP180;59064;45.294;11.816;2023-01-31T00:43:55;101693.20;;;0.52
68939;BMP180;59064;45.294;11.816;2023-01-31T00:46:21;101693.80;;;0.52
68939;BMP180;59064;45.294;11.816;2023-01-31T00:48:47;101702.20;;;0.58
68939;BMP180;59064;45.294;11.816;2023-01-31T00:51:13;101699.80;;;0.60
68939;BMP180;59064;45.294;11.816;2023-01-31T00:53:39;101700.20;;;0.60
68939;BMP180;59064;45.294;11.816;2023-01-31T00:56:16;101707.40;;;0.60
68939;BMP180;59064;45.294;11.816;2023-01-31T00:58:42;101707.20;;;0.60
68939;BMP180;59064;45.294;11.816;2023-01-31T01:01:13;101714.80;;;0.60
68939;BMP180;59064;45.294;11.816;2023-01-31T01:03:41;101724.20;;;0.60
68939;BMP180;59064;45.294;11.816;2023-01-31T01:06:07;101717.80;;;0.60
68939;BMP180;59064;45.294;11.816;2023-01-31T01:08:35;101722.00;;;0.58
68939;BMP180;59064;45.294;11.816;2023-01-31T01:11:17;101719.40;;;0.60
68939;BMP180;59064;45.294;11.816;2023-01-31T01:13:45;101718.00;;;0.60
68939;BMP180;59064;45.294;11.816;2023-01-31T01:16:21;101716.80;;;0.60
68939;BMP180;59064;45.294;11.816;2023-01-31T01:18:48;101726.00;;;0.60
68939;BMP180;59064;45.294;11.816;2023-01-31T01:21:18;101724.80;;;0.62
68939;BMP180;59064;45.294;11.816;2023-01-31T01:23:45;101722.40;;;0.70
68939;BMP180;59064;45.294;11.816;2023-01-31T01:26:27;101736.60;;;0.80
68939;BMP180;59064;45.294;11.816;2023-01-31T01:28:55;101729.20;;;0.80
68939;BMP180;59064;45.294;11.816;2023-01-31T01:31:22;101726.00;;;0.90
68939;BMP180;59064;45.294;11.816;2023-01-31T01:33:59;101731.80;;;1.00
68939;BMP180;59064;45.294;11.816;2023-01-31T01:36:26;101728.60;;;1.00
68939;BMP180;59064;45.294;11.816;2023-01-31T01:38:52;101723.40;;;0.96
68939;BMP180;59064;45.294;11.816;2023-01-31T01:41:19;101713.40;;;0.96
68939;BMP180;59064;45.294;11.816;2023-01-31T01:43:53;101734.20;;;0.98
68939;BMP180;59064;45.294;11.816;2023-01-31T01:49:14;101737.80;;;0.86
68939;BMP180;59064;45.294;11.816;2023-01-31T01:51:44;101758.00;;;0.80
68939;BMP180;59064;45.294;11.816;2023-01-31T01:54:17;101749.20;;;0.60
68939;BMP180;59064;45.294;11.816;2023-01-31T01:56:47;101744.00;;;0.50
68939;BMP180;59064;45.294;11.816;2023-01-31T01:59:28;101740.80;;;0.42
68939;BMP180;59064;45.294;11.816;2023-01-31T02:01:55;101745.80;;;0.30
68939;BMP180;59064;45.294;11.816;2023-01-31T02:04:38;101750.00;;;0.20
68939;BMP180;59064;45.294;11.816;2023-01-31T02:07:07;101731.40;;;0.20
68939;BMP180;59064;45.294;11.816;2023-01-31T02:12:34;101747.40;;;0.40
68939;BMP180;59064;45.294;11.816;2023-01-31T02:15:01;101751.40;;;0.40
68939;BMP180;59064;45.294;11.816;2023-01-31T02:17:27;101752.60;;;0.30
68939;BMP180;59064;45.294;11.816;2023-01-31T02:23:01;101760.00;;;0.20
68939;BMP180;59064;45.294;11.816;2023-01-31T02:26:07;101763.00;;;0.10
68939;BMP180;59064;45.294;11.816;2023-01-31T02:29:17;101762.00;;;0.00
68939;BMP180;59064;45.294;11.816;2023-01-31T02:43:59;101762.80;;;-0.22
68939;BMP180;59064;45.294;11.816;2023-01-31T02:47:27;101764.20;;;-0.30
68939;BMP180;59064;45.294;11.816;2023-01-31T02:50:28;101765.00;;;-0.46
68939;BMP180;59064;45.294;11.816;2023-01-31T02:53:10;101761.00;;;-0.52
68939;BMP180;59064;45.294;11.816;2023-01-31T02:55:54;101760.20;;;-0.60
68939;BMP180;59064;45.294;11.816;2023-01-31T02:58:42;101762.80;;;-0.68
68939;BMP180;59064;45.294;11.816;2023-01-31T03:01:14;101755.60;;;-0.70
68939;BMP180;59064;45.294;11.816;2023-01-31T03:03:41;101753.20;;;-0.70
68939;BMP180;59064;45.294;11.816;2023-01-31T03:08:42;101759.40;;;-0.70
68939;BMP180;59064;45.294;11.816;2023-01-31T03:11:09;101761.20;;;-0.70
68939;BMP180;59064;45.294;11.816;2023-01-31T03:16:28;101770.00;;;-0.80
68939;BMP180;59064;45.294;11.816;2023-01-31T03:19:20;101778.20;;;-0.90
68939;BMP180;59064;45.294;11.816;2023-01-31T03:22:10;101775.20;;;-1.00
68939;BMP180;59064;45.294;11.816;2023-01-31T03:24:44;101780.40;;;-1.00
68939;BMP180;59064;45.294;11.816;2023-01-31T03:27:13;101780.00;;;-1.00
68939;BMP180;59064;45.294;11.816;2023-01-31T03:29:40;101780.00;;;-1.00
68939;BMP180;59064;45.294;11.816;2023-01-31T03:32:29;101785.80;;;-1.00
68939;BMP180;59064;45.294;11.816;2023-01-31T03:34:56;101785.40;;;-1.00
68939;BMP180;59064;45.294;11.816;2023-01-31T03:37:35;101789.80;;;-1.00
68939;BMP180;59064;45.294;11.816;2023-01-31T03:40:16;101784.40;;;-1.00
68939;BMP180;59064;45.294;11.816;2023-01-31T03:46:17;101792.60;;;-0.90
68939;BMP180;59064;45.294;11.816;2023-01-31T03:48:48;101785.60;;;-0.90
68939;BMP180;59064;45.294;11.816;2023-01-31T03:51:22;101781.80;;;-0.90
68939;BMP180;59064;45.294;11.816;2023-01-31T03:53:53;101796.60;;;-0.82
68939;BMP180;59064;45.294;11.816;2023-01-31T03:59:06;101791.80;;;-0.90
68939;BMP180;59064;45.294;11.816;2023-01-31T04:01:34;101784.60;;;-1.00
68939;BMP180;59064;45.294;11.816;2023-01-31T04:04:10;101792.00;;;-1.00
68939;BMP180;59064;45.294;11.816;2023-01-31T04:06:38;101799.40;;;-1.02
68939;BMP180;59064;45.294;11.816;2023-01-31T04:09:03;101800.60;;;-0.94
68939;BMP180;59064;45.294;11.816;2023-01-31T04:11:36;101807.40;;;-0.90
68939;BMP180;59064;45.294;11.816;2023-01-31T04:14:02;101806.00;;;-0.70
68939;BMP180;59064;45.294;11.816;2023-01-31T04:16:28;101799.60;;;-0.62
68939;BMP180;59064;45.294;11.816;2023-01-31T04:18:54;101798.00;;;-0.70
68939;BMP180;59064;45.294;11.816;2023-01-31T04:21:21;101801.60;;;-0.80
68939;BMP180;59064;45.294;11.816;2023-01-31T04:23:47;101802.00;;;-0.80
68939;BMP180;59064;45.294;11.816;2023-01-31T04:26:13;101801.00;;;-0.82
68939;BMP180;59064;45.294;11.816;2023-01-31T04:28:40;101794.60;;;-0.90
68939;BMP180;59064;45.294;11.816;2023-01-31T04:31:06;101794.60;;;-0.80
68939;BMP180;59064;45.294;11.816;2023-01-31T04:33:32;101789.80;;;-0.90
68939;BMP180;59064;45.294;11.816;2023-01-31T04:35:57;101786.60;;;-0.90
68939;BMP180;59064;45.294;11.816;2023-01-31T04:38:23;101783.80;;;-0.90
68939;BMP180;59064;45.294;11.816;2023-01-31T04:40:49;101778.80;;;-0.92
68939;BMP180;59064;45.294;11.816;2023-01-31T04:43:14;101775.80;;;-1.04
68939;BMP180;59064;45.294;11.816;2023-01-31T04:45:40;101781.60;;;-1.12
68939;BMP180;59064;45.294;11.816;2023-01-31T04:48:06;101779.60;;;-1.20
68939;BMP180;59064;45.294;11.816;2023-01-31T04:50:32;101784.20;;;-1.20
68939;BMP180;59064;45.294;11.816;2023-01-31T04:52:58;101784.60;;;-1.20
68939;BMP180;59064;45.294;11.816;2023-01-31T04:55:23;101785.00;;;-1.30
68939;BMP180;59064;45.294;11.816;2023-01-31T04:57:50;101795.20;;;-1.30
68939;BMP180;59064;45.294;11.816;2023-01-31T05:00:16;101804.00;;;-1.40
68939;BMP180;59064;45.294;11.816;2023-01-31T05:02:44;101796.20;;;-1.40
68939;BMP180;59064;45.294;11.816;2023-01-31T05:05:09;101794.20;;;-1.40
68939;BMP180;59064;45.294;11.816;2023-01-31T05:07:38;101796.80;;;-1.40
68939;BMP180;59064;45.294;11.816;2023-01-31T05:10:04;101796.00;;;-1.50
68939;BMP180;59064;45.294;11.816;2023-01-31T05:12:31;101791.80;;;-1.50
68939;BMP180;59064;45.294;11.816;2023-01-31T05:14:57;101793.60;;;-1.50
68939;BMP180;59064;45.294;11.816;2023-01-31T05:17:23;101803.40;;;-1.58
68939;BMP180;59064;45.294;11.816;2023-01-31T05:19:58;101810.60;;;-1.60
68939;BMP180;59064;45.294;11.816;2023-01-31T05:22:25;101814.40;;;-1.60
68939;BMP180;59064;45.294;11.816;2023-01-31T05:24:51;101811.40;;;-1.70
68939;BMP180;59064;45.294;11.816;2023-01-31T05:27:18;101810.60;;;-1.70
68939;BMP180;59064;45.294;11.816;2023-01-31T05:29:44;101811.40;;;-1.80
68939;BMP180;59064;45.294;11.816;2023-01-31T05:32:11;101813.20;;;-1.80
68939;BMP180;59064;45.294;11.816;2023-01-31T05:34:37;101810.60;;;-1.90
68939;BMP180;59064;45.294;11.816;2023-01-31T05:37:03;101801.00;;;-1.98
68939;BMP180;59064;45.294;11.816;2023-01-31T05:39:29;101800.80;;;-2.00
68939;BMP180;59064;45.294;11.816;2023-01-31T05:41:55;101803.60;;;-2.00
68939;BMP180;59064;45.294;11.816;2023-01-31T05:44:21;101808.80;;;-2.08
68939;BMP180;59064;45.294;11.816;2023-01-31T05:46:47;101816.80;;;-2.10
68939;BMP180;59064;45.294;11.816;2023-01-31T05:49:13;101818.80;;;-2.10
68939;BMP180;59064;45.294;11.816;2023-01-31T05:51:40;101822.80;;;-2.10
68939;BMP180;59064;45.294;11.816;2023-01-31T05:54:06;101822.40;;;-2.10
68939;BMP180;59064;45.294;11.816;2023-01-31T05:56:32;101822.80;;;-2.02
68939;BMP180;59064;45.294;11.816;2023-01-31T05:58:58;101820.80;;;-1.96
68939;BMP180;59064;45.294;11.816;2023-01-31T06:01:25;101819.40;;;-2.00
68939;BMP180;59064;45.294;11.816;2023-01-31T06:03:52;101824.20;;;-2.04
68939;BMP180;59064;45.294;11.816;2023-01-31T06:06:18;101833.40;;;-2.10
68939;BMP180;59064;45.294;11.816;2023-01-31T06:08:44;101838.80;;;-2.10
68939;BMP180;59064;45.294;11.816;2023-01-31T06:11:11;101843.00;;;-2.14
68939;BMP180;59064;45.294;11.816;2023-01-31T06:13:38;101844.00;;;-2.18
68939;BMP180;59064;45.294;11.816;2023-01-31T06:16:05;101846.40;;;-2.20
68939;BMP180;59064;45.294;11.816;2023-01-31T06:18:31;101844.00;;;-2.20
68939;BMP180;59064;45.294;11.816;2023-01-31T06:20:57;101846.60;;;-2.20
68939;BMP180;59064;45.294;11.816;2023-01-31T06:23:22;101855.40;;;-2.20
68939;BMP180;59064;45.294;11.816;2023-01-31T06:25:53;101856.60;;;-2.30
68939;BMP180;59064;45.294;11.816;2023-01-31T06:28:20;101856.00;;;-2.30
68939;BMP180;59064;45.294;11.816;2023-01-31T06:30:46;101859.80;;;-2.30
68939;BMP180;59064;45.294;11.816;2023-01-31T06:33:12;101864.20;;;-2.30
68939;BMP180;59064;45.294;11.816;2023-01-31T06:35:38;101871.00;;;-2.30
68939;BMP180;59064;45.294;11.816;2023-01-31T06:38:05;101874.00;;;-2.30
68939;BMP180;59064;45.294;11.816;2023-01-31T06:40:31;101878.20;;;-2.30
68939;BMP180;59064;45.294;11.816;2023-01-31T06:42:58;101881.00;;;-2.30
68939;BMP180;59064;45.294;11.816;2023-01-31T06:45:24;101892.60;;;-2.28
68939;BMP180;59064;45.294;11.816;2023-01-31T06:47:50;101892.40;;;-2.20
68939;BMP180;59064;45.294;11.816;2023-01-31T06:50:16;101893.00;;;-2.10
68939;BMP180;59064;45.294;11.816;2023-01-31T06:52:42;101895.00;;;-2.00
68939;BMP180;59064;45.294;11.816;2023-01-31T06:55:09;101901.60;;;-2.00
68939;BMP180;59064;45.294;11.816;2023-01-31T06:57:36;101907.60;;;-1.90
68939;BMP180;59064;45.294;11.816;2023-01-31T07:00:03;101913.00;;;-1.84
68939;BMP180;59064;45.294;11.816;2023-01-31T07:02:29;101911.80;;;-1.80
68939;BMP180;59064;45.294;11.816;2023-01-31T07:04:54;101916.80;;;-1.70
68939;BMP180;59064;45.294;11.816;2023-01-31T07:07:20;101914.60;;;-1.58
68939;BMP180;59064;45.294;11.816;2023-01-31T07:09:46;101922.00;;;-1.42
68939;BMP180;59064;45.294;11.816;2023-01-31T07:12:11;101921.80;;;-1.28
68939;BMP180;59064;45.294;11.816;2023-01-31T07:14:37;101926.00;;;-1.00
68939;BMP180;59064;45.294;11.816;2023-01-31T07:17:02;101933.80;;;-0.82
68939;BMP180;59064;45.294;11.816;2023-01-31T07:19:28;101935.00;;;-0.70
68939;BMP180;59064;45.294;11.816;2023-01-31T07:21:54;101933.20;;;-0.52
68939;BMP180;59064;45.294;11.816;2023-01-31T07:24:19;101936.00;;;-0.40
68939;BMP180;59064;45.294;11.816;2023-01-31T07:26:45;101943.00;;;-0.20
68939;BMP180;59064;45.294;11.816;2023-01-31T07:29:11;101937.20;;;0.00
68939;BMP180;59064;45.294;11.816;2023-01-31T07:31:38;101948.40;;;0.16
68939;BMP180;59064;45.294;11.816;2023-01-31T07:34:03;101944.00;;;0.34
68939;BMP180;59064;45.294;11.816;2023-01-31T07:36:29;101942.40;;;0.48
68939;BMP180;59064;45.294;11.816;2023-01-31T07:38:56;101947.20;;;0.50
68939;BMP180;59064;45.294;11.816;2023-01-31T07:41:24;101952.60;;;0.66
68939;BMP180;59064;45.294;11.816;2023-01-31T07:43:50;101958.80;;;0.80
68939;BMP180;59064;45.294;11.816;2023-01-31T07:46:16;101959.80;;;1.10
68939;BMP180;59064;45.294;11.816;2023-01-31T07:48:42;101957.80;;;1.32
68939;BMP180;59064;45.294;11.816;2023-01-31T07:51:09;101956.40;;;1.56
68939;BMP180;59064;45.294;11.816;2023-01-31T07:53:38;101953.40;;;1.76
68939;BMP180;59064;45.294;11.816;2023-01-31T07:56:08;101950.40;;;1.86
68939;BMP180;59064;45.294;11.816;2023-01-31T07:58:36;101950.80;;;1.96
68939;BMP180;59064;45.294;11.816;2023-01-31T08:01:03;101956.20;;;2.10
68939;BMP180;59064;45.294;11.816;2023-01-31T08:03:47;101961.40;;;2.22
68939;BMP180;59064;45.294;11.816;2023-01-31T08:06:13;101957.20;;;2.40
68939;BMP180;59064;45.294;11.816;2023-01-31T08:08:41;101965.80;;;2.60
68939;BMP180;59064;45.294;11.816;2023-01-31T08:11:07;101969.20;;;2.76
68939;BMP180;59064;45.294;11.816;2023-01-31T08:13:34;101968.40;;;2.92
68939;BMP180;59064;45.294;11.816;2023-01-31T08:16:01;101965.00;;;3.20
68939;BMP180;59064;45.294;11.816;2023-01-31T08:18:27;101968.40;;;3.44
68939;BMP180;59064;45.294;11.816;2023-01-31T08:20:53;101974.00;;;3.60
68939;BMP180;59064;45.294;11.816;2023-01-31T08:23:19;101970.40;;;3.76
68939;BMP180;59064;45.294;11.816;2023-01-31T08:25:44;101976.80;;;3.94
68939;BMP180;59064;45.294;11.816;2023-01-31T08:28:10;101986.40;;;4.12
68939;BMP180;59064;45.294;11.816;2023-01-31T08:30:41;101987.40;;;4.38
68939;BMP180;59064;45.294;11.816;2023-01-31T08:33:08;101987.80;;;4.60
68939;BMP180;59064;45.294;11.816;2023-01-31T08:35:34;101983.80;;;4.80
68939;BMP180;59064;45.294;11.816;2023-01-31T08:38:00;101984.00;;;5.00
68939;BMP180;59064;45.294;11.816;2023-01-31T08:40:25;101979.60;;;5.20
68939;BMP180;59064;45.294;11.816;2023-01-31T08:42:56;101984.40;;;5.38
68939;BMP180;59064;45.294;11.816;2023-01-31T08:45:23;101992.60;;;5.56
68939;BMP180;59064;45.294;11.816;2023-01-31T08:47:54;101989.80;;;5.78
68939;BMP180;59064;45.294;11.816;2023-01-31T08:50:22;101989.00;;;6.10
68939;BMP180;59064;45.294;11.816;2023-01-31T08:52:58;101990.00;;;6.36
68939;BMP180;59064;45.294;11.816;2023-01-31T08:55:25;101994.60;;;6.68
68939;BMP180;59064;45.294;11.816;2023-01-31T08:57:52;101996.00;;;7.00
68939;BMP180;59064;45.294;11.816;2023-01-31T09:00:19;102001.00;;;7.32
68939;BMP180;59064;45.294;11.816;2023-01-31T09:02:53;102007.00;;;7.68
68939;BMP180;59064;45.294;11.816;2023-01-31T09:05:20;102006.20;;;7.92
68939;BMP180;59064;45.294;11.816;2023-01-31T09:07:46;102001.80;;;8.10
68939;BMP180;59064;45.294;11.816;2023-01-31T09:10:11;102004.40;;;8.30
68939;BMP180;59064;45.294;11.816;2023-01-31T09:12:37;102009.20;;;8.52
68939;BMP180;59064;45.294;11.816;2023-01-31T09:15:04;102006.20;;;8.70
68939;BMP180;59064;45.294;11.816;2023-01-31T09:17:30;102002.80;;;8.70
68939;BMP180;59064;45.294;11.816;2023-01-31T09:19:56;101998.00;;;8.80
68939;BMP180;59064;45.294;11.816;2023-01-31T09:22:23;101998.20;;;8.80
68939;BMP180;59064;45.294;11.816;2023-01-31T09:24:48;102001.00;;;8.80
68939;BMP180;59064;45.294;11.816;2023-01-31T09:27:14;102000.20;;;8.80
68939;BMP180;59064;45.294;11.816;2023-01-31T09:29:40;102007.80;;;8.90
68939;BMP180;59064;45.294;11.816;2023-01-31T09:32:06;102007.80;;;9.00
68939;BMP180;59064;45.294;11.816;2023-01-31T09:34:32;102014.40;;;9.04
68939;BMP180;59064;45.294;11.816;2023-01-31T09:36:58;102012.60;;;9.12
68939;BMP180;59064;45.294;11.816;2023-01-31T09:39:24;102015.60;;;9.20
68939;BMP180;59064;45.294;11.816;2023-01-31T09:41:58;102015.20;;;9.22
68939;BMP180;59064;45.294;11.816;2023-01-31T09:44:33;102015.20;;;9.30
68939;BMP180;59064;45.294;11.816;2023-01-31T09:50:04;102013.20;;;9.40
68939;BMP180;59064;45.294;11.816;2023-01-31T09:52:32;102010.80;;;9.44
68939;BMP180;59064;45.294;11.816;2023-01-31T09:54:58;102009.20;;;9.48
68939;BMP180;59064;45.294;11.816;2023-01-31T09:57:54;102013.80;;;9.48
68939;BMP180;59064;45.294;11.816;2023-01-31T10:00:30;102017.40;;;9.52
68939;BMP180;59064;45.294;11.816;2023-01-31T10:03:40;102020.80;;;9.60
68939;BMP180;59064;45.294;11.816;2023-01-31T10:06:20;102021.40;;;9.70
68939;BMP180;59064;45.294;11.816;2023-01-31T10:11:34;102018.60;;;9.80
68939;BMP180;59064;45.294;11.816;2023-01-31T10:14:19;102014.80;;;9.80
68939;BMP180;59064;45.294;11.816;2023-01-31T10:17:11;102013.40;;;9.50
68939;BMP180;59064;45.294;11.816;2023-01-31T10:19:57;102007.60;;;9.50
68939;BMP180;59064;45.294;11.816;2023-01-31T10:23:10;102009.40;;;9.66
68939;BMP180;59064;45.294;11.816;2023-01-31T10:26:19;102016.00;;;9.80
68939;BMP180;59064;45.294;11.816;2023-01-31T10:28:53;102013.40;;;9.80
68939;BMP180;59064;45.294;11.816;2023-01-31T10:31:55;102008.20;;;9.70
68939;BMP180;59064;45.294;11.816;2023-01-31T10:34:42;102003.20;;;9.70
68939;BMP180;59064;45.294;11.816;2023-01-31T10:40:41;102009.40;;;9.50
68939;BMP180;59064;45.294;11.816;2023-01-31T10:43:36;102006.80;;;9.50
68939;BMP180;59064;45.294;11.816;2023-01-31T10:46:10;102002.60;;;9.64
68939;BMP180;59064;45.294;11.816;2023-01-31T10:48:36;102003.40;;;9.70
68939;BMP180;59064;45.294;11.816;2023-01-31T10:51:22;102003.20;;;9.52
68939;BMP180;59064;45.294;11.816;2023-01-31T10:57:25;102005.80;;;9.70
68939;BMP180;59064;45.294;11.816;2023-01-31T10:59:52;102010.00;;;9.78
68939;BMP180;59064;45.294;11.816;2023-01-31T11:02:24;102005.80;;;9.70
68939;BMP180;59064;45.294;11.816;2023-01-31T11:04:55;102005.20;;;9.70
68939;BMP180;59064;45.294;11.816;2023-01-31T11:07:23;102005.40;;;9.70
68939;BMP180;59064;45.294;11.816;2023-01-31T11:09:52;102001.00;;;9.80
68939;BMP180;59064;45.294;11.816;2023-01-31T11:12:20;102004.20;;;9.80
68939;BMP180;59064;45.294;11.816;2023-01-31T11:15:27;101997.80;;;9.78
68939;BMP180;59064;45.294;11.816;2023-01-31T11:17:58;101997.00;;;9.80
68939;BMP180;59064;45.294;11.816;2023-01-31T11:22:52;101985.40;;;9.90
68939;BMP180;59064;45.294;11.816;2023-01-31T11:25:22;101984.20;;;9.98
68939;BMP180;59064;45.294;11.816;2023-01-31T11:27:52;101982.60;;;10.12
68939;BMP180;59064;45.294;11.816;2023-01-31T11:32:47;101977.00;;;10.52
68939;BMP180;59064;45.294;11.816;2023-01-31T11:40:39;101977.00;;;10.80
68939;BMP180;59064;45.294;11.816;2023-01-31T11:45:56;101969.40;;;11.08
68939;BMP180;59064;45.294;11.816;2023-01-31T11:48:45;101963.80;;;11.10
68939;BMP180;59064;45.294;11.816;2023-01-31T11:51:24;101962.20;;;11.20
68939;BMP180;59064;45.294;11.816;2023-01-31T11:53:52;101964.00;;;11.40
68939;BMP180;59064;45.294;11.816;2023-01-31T11:56:27;101962.40;;;11.50
68939;BMP180;59064;45.294;11.816;2023-01-31T11:58:59;101958.40;;;11.50
68939;BMP180;59064;45.294;11.816;2023-01-31T12:01:28;101960.20;;;11.68
68939;BMP180;59064;45.294;11.816;2023-01-31T12:04:00;101959.20;;;11.78
68939;BMP180;59064;45.294;11.816;2023-01-31T12:06:34;101955.60;;;11.80
68939;BMP180;59064;45.294;11.816;2023-01-31T12:09:26;101958.40;;;11.94
68939;BMP180;59064;45.294;11.816;2023-01-31T12:11:58;101952.60;;;12.08
68939;BMP180;59064;45.294;11.816;2023-01-31T12:14:38;101952.40;;;12.10
68939;BMP180;59064;45.294;11.816;2023-01-31T12:17:06;101956.00;;;12.40
68939;BMP180;59064;45.294;11.816;2023-01-31T12:22:44;101944.80;;;12.58
68939;BMP180;59064;45.294;11.816;2023-01-31T12:25:21;101942.80;;;12.60
68939;BMP180;59064;45.294;11.816;2023-01-31T12:31:20;101948.20;;;12.60
68939;BMP180;59064;45.294;11.816;2023-01-31T12:37:06;101934.40;;;12.60
68939;BMP180;59064;45.294;11.816;2023-01-31T12:42:40;101929.20;;;12.68
68939;BMP180;59064;45.294;11.816;2023-01-31T12:48:46;101926.00;;;12.90
68939;BMP180;59064;45.294;11.816;2023-01-31T12:55:00;101932.20;;;13.06
68939;BMP180;59064;45.294;11.816;2023-01-31T13:05:41;101910.40;;;13.30
68939;BMP180;59064;45.294;11.816;2023-01-31T13:08:22;101910.60;;;12.90
68939;BMP180;59064;45.294;11.816;2023-01-31T13:11:08;101907.80;;;12.40
68939;BMP180;59064;45.294;11.816;2023-01-31T13:16:27;101899.60;;;11.90
68939;BMP180;59064;45.294;11.816;2023-01-31T13:19:01;101895.80;;;11.80
68939;BMP180;59064;45.294;11.816;2023-01-31T13:21:33;101895.60;;;11.92
68939;BMP180;59064;45.294;11.816;2023-01-31T13:24:10;101896.80;;;11.82
68939;BMP180;59064;45.294;11.816;2023-01-31T13:26:55;101893.40;;;11.84
68939;BMP180;59064;45.294;11.816;2023-01-31T13:29:32;101891.00;;;11.86
68939;BMP180;59064;45.294;11.816;2023-01-31T13:32:09;101884.00;;;11.80
68939;BMP180;59064;45.294;11.816;2023-01-31T13:34:48;101884.60;;;11.70
68939;BMP180;59064;45.294;11.816;2023-01-31T13:37:16;101880.20;;;11.60
68939;BMP180;59064;45.294;11.816;2023-01-31T13:40:02;101885.20;;;11.58
68939;BMP180;59064;45.294;11.816;2023-01-31T13:42:29;101888.60;;;11.60
68939;BMP180;59064;45.294;11.816;2023-01-31T13:45:00;101891.60;;;11.58
68939;BMP180;59064;45.294;11.816;2023-01-31T13:47:31;101891.20;;;11.60
68939;BMP180;59064;45.294;11.816;2023-01-31T13:52:51;101886.00;;;11.80
68939;BMP180;59064;45.294;11.816;2023-01-31T14:01:19;101895.20;;;11.90
68939;BMP180;59064;45.294;11.816;2023-01-31T14:04:29;101894.40;;;11.90
68939;BMP180;59064;45.294;11.816;2023-01-31T14:09:32;101888.60;;;12.30
68939;BMP180;59064;45.294;11.816;2023-01-31T14:17:09;101890.60;;;12.10
68939;BMP180;59064;45.294;11.816;2023-01-31T14:32:41;101871.80;;;11.50
68939;BMP180;59064;45.294;11.816;2023-01-31T14:58:32;101862.20;;;10.20
68939;BMP180;59064;45.294;11.816;2023-01-31T15:01:04;101858.60;;;10.20
68939;BMP180;59064;45.294;11.816;2023-01-31T15:03:38;101860.80;;;10.24
68939;BMP180;59064;45.294;11.816;2023-01-31T15:06:13;101860.00;;;10.30
68939;BMP180;59064;45.294;11.816;2023-01-31T15:08:46;101869.60;;;10.30
68939;BMP180;59064;45.294;11.816;2023-01-31T15:11:38;101866.40;;;10.50
68939;BMP180;59064;45.294;11.816;2023-01-31T15:20:12;101865.60;;;11.92
68939;BMP180;59064;45.294;11.816;2023-01-31T15:22:40;101873.20;;;12.30
68939;BMP180;59064;45.294;11.816;2023-01-31T15:27:55;101887.00;;;12.70
68939;BMP180;59064;45.294;11.816;2023-01-31T15:30:22;101892.80;;;12.80
68939;BMP180;59064;45.294;11.816;2023-01-31T15:32:54;101898.80;;;12.90
68939;BMP180;59064;45.294;11.816;2023-01-31T15:35:33;101904.40;;;13.00
68939;BMP180;59064;45.294;11.816;2023-01-31T15:38:38;101903.60;;;13.06
68939;BMP180;59064;45.294;11.816;2023-01-31T15:41:23;101905.60;;;13.16
68939;BMP180;59064;45.294;11.816;2023-01-31T15:43:53;101906.20;;;13.10
68939;BMP180;59064;45.294;11.816;2023-01-31T15:46:27;101897.00;;;12.90
68939;BMP180;59064;45.294;11.816;2023-01-31T15:48:54;101899.40;;;12.70
68939;BMP180;59064;45.294;11.816;2023-01-31T15:51:20;101886.20;;;12.36
68939;BMP180;59064;45.294;11.816;2023-01-31T15:53:47;101881.00;;;12.00
68939;BMP180;59064;45.294;11.816;2023-01-31T15:56:23;101883.60;;;11.62
68939;BMP180;59064;45.294;11.816;2023-01-31T15:58:53;101881.40;;;11.30
68939;BMP180;59064;45.294;11.816;2023-01-31T16:01:20;101878.40;;;11.00
68939;BMP180;59064;45.294;11.816;2023-01-31T16:03:54;101878.80;;;10.76
68939;BMP180;59064;45.294;11.816;2023-01-31T16:06:41;101876.40;;;10.50
68939;BMP180;59064;45.294;11.816;2023-01-31T16:09:28;101876.60;;;10.28
68939;BMP180;59064;45.294;11.816;2023-01-31T16:11:58;101876.00;;;10.02
68939;BMP180;59064;45.294;11.816;2023-01-31T16:14:25;101881.40;;;9.80
68939;BMP180;59064;45.294;11.816;2023-01-31T16:16:55;101882.20;;;9.60
68939;BMP180;59064;45.294;11.816;2023-01-31T16:19:32;101881.20;;;9.40
68939;BMP180;59064;45.294;11.816;2023-01-31T16:22:00;101886.60;;;9.20
68939;BMP180;59064;45.294;11.816;2023-01-31T16:24:26;101892.00;;;9.00
68939;BMP180;59064;45.294;11.816;2023-01-31T16:27:13;101899.40;;;8.80
68939;BMP180;59064;45.294;11.816;2023-01-31T16:29:45;101907.60;;;8.60
68939;BMP180;59064;45.294;11.816;2023-01-31T16:35:23;101902.80;;;8.30
68939;BMP180;59064;45.294;11.816;2023-01-31T16:38:05;101900.20;;;8.10
68939;BMP180;59064;45.294;11.816;2023-01-31T16:40:44;101904.40;;;7.90
68939;BMP180;59064;45.294;11.816;2023-01-31T16:43:27;101907.20;;;7.78
68939;BMP180;59064;45.294;11.816;2023-01-31T16:45:59;101910.20;;;7.60
68939;BMP180;59064;45.294;11.816;2023-01-31T16:48:59;101903.40;;;7.50